createdAt,value
2022-09-26T00:00:25.182Z,1.00
2022-09-26T00:02:53.066Z,2.00
2022-09-26T00:05:22.345Z,2.00
2022-09-26T00:07:50.515Z,1.75
2022-09-26T00:10:18.431Z,2.00
2022-09-26T00:12:46.429Z,1.50
2022-09-26T00:15:14.251Z,2.00
2022-09-26T00:17:42.405Z,1.75
2022-09-26T00:20:10.800Z,1.00
2022-09-26T00:22:40.053Z,1.00
2022-09-26T00:25:09.185Z,1.00
2022-09-26T00:27:37.073Z,1.00
2022-09-26T00:30:06.690Z,1.00
2022-09-26T00:32:34.569Z,2.00
2022-09-26T00:35:03.509Z,2.00
2022-09-26T00:37:31.652Z,1.75
2022-09-26T00:40:00.958Z,1.00
2022-09-26T00:42:28.870Z,1.00
2022-09-26T00:44:56.869Z,1.50
2022-09-26T00:47:40.375Z,2.00
2022-09-26T00:50:13.279Z,1.50
2022-09-26T00:52:42.951Z,1.75
2022-09-26T00:55:14.087Z,1.75
2022-09-26T00:57:45.390Z,1.00
2022-09-26T01:00:14.841Z,1.00
2022-09-26T01:02:43.455Z,2.00
2022-09-26T01:05:12.204Z,1.25
2022-09-26T01:07:40.306Z,1.75
2022-09-26T01:10:08.816Z,1.00
2022-09-26T01:12:38.093Z,2.00
2022-09-26T01:15:09.212Z,2.00
2022-09-26T01:17:37.881Z,1.50
2022-09-26T01:20:18.666Z,2.00
2022-09-26T01:23:11.772Z,1.25
2022-09-26T01:25:58.420Z,1.75
2022-09-26T01:28:36.629Z,2.50
2022-09-26T01:31:11.932Z,1.00
2022-09-26T01:33:44.935Z,1.00
2022-09-26T01:36:24.674Z,2.00
2022-09-26T01:38:59.574Z,2.50
2022-09-26T01:41:37.864Z,2.50
2022-09-26T01:44:10.005Z,1.50
2022-09-26T01:46:42.636Z,1.00
2022-09-26T01:49:12.370Z,1.00
2022-09-26T01:51:41.381Z,2.25
2022-09-26T01:54:11.864Z,1.75
2022-09-26T01:56:40.379Z,2.00
2022-09-26T01:59:09.898Z,0.75
2022-09-26T02:01:40.981Z,2.00
2022-09-26T02:04:10.429Z,1.00
2022-09-26T02:06:40.872Z,2.00
2022-09-26T02:09:10.427Z,2.00
2022-09-26T02:11:38.543Z,2.00
2022-09-26T02:14:08.287Z,1.00
2022-09-26T02:16:37.838Z,2.00
2022-09-26T02:19:10.239Z,2.00
2022-09-26T02:21:38.120Z,1.50
2022-09-26T02:24:06.068Z,2.00
2022-09-26T02:26:34.508Z,1.00
2022-09-26T02:29:02.519Z,1.50
2022-09-26T02:31:33.089Z,1.00
2022-09-26T02:34:00.985Z,1.00
2022-09-26T02:36:33.724Z,1.00
2022-09-26T02:39:02.224Z,1.00
2022-09-26T02:41:33.309Z,1.50
2022-09-26T02:44:22.545Z,1.75
2022-09-26T02:47:00.130Z,1.50
2022-09-26T02:49:36.701Z,1.50
2022-09-26T02:52:16.262Z,1.00
2022-09-26T02:54:46.558Z,2.50
2022-09-26T02:57:22.885Z,1.25
2022-09-26T02:59:54.680Z,1.00
2022-09-26T03:02:24.792Z,1.00
2022-09-26T03:04:53.919Z,1.00
2022-09-26T03:07:26.178Z,1.00
2022-09-26T03:09:54.196Z,1.00
2022-09-26T03:12:22.052Z,1.25
2022-09-26T03:14:49.967Z,2.00
2022-09-26T03:17:18.563Z,1.00
2022-09-26T03:19:47.533Z,1.00
2022-09-26T03:22:15.893Z,1.25
2022-09-26T03:24:45.545Z,1.00
2022-09-26T03:27:14.402Z,0.75
2022-09-26T03:29:42.285Z,1.00
2022-09-26T03:32:10.251Z,1.75
2022-09-26T03:34:39.926Z,1.00
2022-09-26T03:37:08.429Z,1.00
2022-09-26T03:39:36.289Z,1.00
2022-09-26T03:42:05.875Z,1.00
2022-09-26T03:44:33.766Z,1.00
2022-09-26T03:47:01.871Z,1.00
2022-09-26T03:49:29.872Z,1.25
2022-09-26T03:51:57.720Z,1.00
2022-09-26T03:54:25.563Z,2.00
2022-09-26T03:56:55.451Z,1.50
2022-09-26T03:59:24.736Z,1.00
2022-09-26T04:01:52.783Z,1.00
2022-09-26T04:04:20.728Z,1.00
2022-09-26T04:06:51.110Z,1.00
2022-09-26T04:09:19.297Z,1.00
2022-09-26T04:11:47.389Z,1.00
2022-09-26T04:14:15.287Z,1.00
2022-09-26T04:16:44.623Z,1.00
2022-09-26T04:19:13.146Z,1.00
2022-09-26T04:21:41.138Z,1.00
2022-09-26T04:24:09.562Z,1.00
2022-09-26T04:26:37.454Z,1.25
2022-09-26T04:29:05.916Z,0.50
2022-09-26T04:31:36.889Z,1.00
2022-09-26T04:34:06.195Z,1.25
2022-09-26T04:36:34.380Z,1.00
2022-09-26T04:39:02.227Z,1.00
2022-09-26T04:41:30.128Z,0.25
2022-09-26T04:43:58.296Z,1.00
2022-09-26T04:46:30.616Z,1.00
2022-09-26T04:49:00.098Z,1.00
2022-09-26T04:51:29.909Z,0.75
2022-09-26T04:53:57.813Z,1.00
2022-09-26T04:56:27.057Z,1.00
2022-09-26T04:58:56.400Z,1.00
2022-09-26T05:01:24.661Z,1.00
2022-09-26T05:03:53.371Z,2.00
2022-09-26T05:06:21.261Z,2.00
2022-09-26T05:08:50.934Z,3.00
2022-09-26T05:11:19.699Z,2.00
2022-09-26T05:13:53.601Z,2.00
2022-09-26T05:16:22.084Z,2.00
2022-09-26T05:18:51.235Z,2.00
2022-09-26T05:21:19.155Z,2.00
2022-09-26T05:24:04.442Z,2.00
2022-09-26T05:26:39.382Z,2.50
2022-09-26T05:29:09.109Z,2.00
2022-09-26T05:31:38.122Z,2.00
2022-09-26T05:34:06.252Z,2.50
2022-09-26T05:36:34.325Z,3.00
2022-09-26T05:39:02.509Z,2.00
2022-09-26T05:41:29.605Z,2.00
2022-09-26T05:43:58.967Z,1.00
2022-09-26T05:46:28.097Z,2.75
2022-09-26T05:48:57.195Z,2.00
2022-09-26T05:51:25.119Z,2.00
2022-09-26T05:53:53.111Z,2.00
2022-09-26T05:56:21.010Z,2.00
2022-09-26T05:58:49.150Z,2.00
2022-09-26T06:01:19.063Z,2.00
2022-09-26T06:03:47.631Z,1.50
2022-09-26T06:06:16.578Z,1.00
2022-09-26T06:08:44.744Z,2.00
2022-09-26T06:11:13.903Z,1.50
2022-09-26T06:13:44.075Z,2.00
2022-09-26T06:16:13.368Z,1.00
2022-09-26T06:18:42.962Z,1.25
2022-09-26T06:21:11.402Z,1.00
2022-09-26T06:23:39.260Z,1.00
2022-09-26T06:26:09.144Z,2.00
2022-09-26T06:28:37.123Z,2.00
2022-09-26T06:31:10.143Z,2.25
2022-09-26T06:33:38.013Z,2.00
2022-09-26T06:36:08.142Z,1.50
2022-09-26T06:38:36.294Z,1.75
2022-09-26T06:41:04.298Z,1.00
2022-09-26T06:43:33.007Z,1.50
2022-09-26T06:46:00.979Z,2.00
2022-09-26T06:48:29.150Z,2.25
2022-09-26T06:51:00.111Z,1.75
2022-09-26T06:53:30.338Z,2.00
2022-09-26T06:55:59.569Z,2.00
2022-09-26T06:58:28.031Z,1.75
2022-09-26T07:00:56.652Z,1.50
2022-09-26T07:03:25.291Z,1.00
2022-09-26T07:05:55.380Z,1.00
2022-09-26T07:08:43.281Z,1.00
2022-09-26T07:11:35.084Z,1.50
2022-09-26T07:14:02.042Z,1.50
2022-09-26T07:16:30.196Z,1.00
2022-09-26T07:18:58.384Z,2.00
2022-09-26T07:21:26.676Z,1.00
2022-09-26T07:23:57.632Z,1.00
2022-09-26T07:26:27.210Z,1.00
2022-09-26T07:28:55.278Z,1.00
2022-09-26T07:31:24.155Z,1.00
2022-09-26T07:33:52.170Z,1.50
2022-09-26T07:36:21.116Z,1.00
2022-09-26T07:38:49.371Z,1.25
2022-09-26T07:41:17.361Z,1.00
2022-09-26T07:44:46.172Z,1.00
2022-09-26T07:46:51.867Z,1.00
2022-09-26T07:49:33.596Z,1.50
2022-09-26T07:52:01.553Z,1.50
2022-09-26T07:54:29.386Z,2.00
2022-09-26T07:56:57.503Z,1.25
2022-09-26T07:59:26.752Z,1.00
2022-09-26T08:01:55.250Z,1.00
2022-09-26T08:04:23.158Z,1.00
2022-09-26T08:06:51.249Z,1.00
2022-09-26T08:09:19.342Z,1.00
2022-09-26T08:11:47.313Z,1.00
2022-09-26T08:14:15.480Z,1.25
2022-09-26T08:16:44.862Z,0.50
2022-09-26T08:19:13.734Z,1.00
2022-09-26T08:21:41.783Z,1.00
2022-09-26T08:24:10.031Z,1.00
2022-09-26T08:26:44.200Z,1.00
2022-09-26T08:29:12.555Z,1.00
2022-09-26T08:31:40.563Z,1.00
2022-09-26T08:34:09.964Z,1.25
2022-09-26T08:36:38.082Z,0.50
2022-09-26T08:39:06.447Z,1.00
2022-09-26T08:41:46.128Z,1.00
2022-09-26T08:44:24.180Z,1.00
2022-09-26T08:46:58.676Z,1.00
2022-09-26T08:49:44.650Z,0.00
2022-09-26T08:52:28.012Z,0.50
2022-09-26T08:54:56.521Z,1.50
2022-09-26T08:57:32.275Z,1.00
2022-09-26T09:00:00.180Z,1.00
2022-09-26T09:02:38.421Z,0.00
2022-09-26T09:05:10.010Z,1.00
2022-09-26T09:07:38.208Z,1.00
2022-09-26T09:10:07.535Z,1.00
2022-09-26T09:12:40.962Z,1.00
2022-09-26T09:15:25.743Z,1.00
2022-09-26T09:17:59.624Z,1.00
2022-09-26T09:20:36.159Z,0.00
2022-09-26T09:23:30.940Z,0.00
2022-09-26T09:29:10.087Z,0.75
2022-09-26T09:31:39.997Z,1.00
2022-09-26T09:34:11.324Z,0.50
2022-09-26T09:36:41.782Z,0.25
2022-09-26T09:39:09.937Z,0.00
2022-09-26T09:41:40.154Z,1.00
2022-09-26T09:44:23.685Z,0.25
2022-09-26T09:46:51.795Z,0.75
2022-09-26T09:49:21.192Z,1.00
2022-09-26T09:51:56.841Z,0.00
2022-09-26T09:54:33.700Z,0.25
2022-09-26T09:57:27.017Z,0.75
2022-09-26T10:00:02.550Z,0.50
2022-09-26T10:02:33.213Z,0.50
2022-09-26T10:05:06.192Z,0.00
2022-09-26T10:07:35.759Z,0.00
2022-09-26T10:10:04.844Z,1.00
2022-09-26T10:12:35.035Z,1.00
2022-09-26T10:15:05.141Z,0.00
2022-09-26T10:17:33.122Z,0.25
2022-09-26T10:20:01.127Z,0.00
2022-09-26T10:22:32.618Z,0.00
2022-09-26T10:25:08.427Z,0.25
2022-09-26T10:27:38.068Z,0.00
2022-09-26T10:30:22.577Z,0.00
2022-09-26T10:32:56.081Z,0.00
2022-09-26T10:35:25.428Z,0.00
2022-09-26T10:37:59.918Z,0.00
2022-09-26T10:40:48.265Z,1.00
2022-09-26T10:43:24.619Z,0.50
2022-09-26T10:45:54.970Z,1.00
2022-09-26T10:48:24.288Z,0.00
2022-09-26T10:50:52.872Z,0.00
2022-09-26T10:53:23.049Z,0.00
2022-09-26T10:55:57.521Z,0.50
2022-09-26T10:58:27.700Z,0.00
2022-09-26T11:00:57.301Z,0.00
2022-09-26T11:03:26.151Z,0.00
2022-09-26T11:05:59.296Z,0.00
2022-09-26T11:08:28.823Z,0.00
2022-09-26T11:10:58.215Z,0.00
2022-09-26T11:13:26.908Z,0.00
2022-09-26T11:16:01.793Z,0.00
2022-09-26T11:18:37.130Z,0.00
2022-09-26T11:21:18.391Z,0.00
2022-09-26T11:23:58.070Z,0.50
2022-09-26T11:26:33.950Z,0.00
2022-09-26T11:29:08.229Z,0.00
2022-09-26T11:31:37.367Z,1.00
2022-09-26T11:34:05.433Z,0.00
2022-09-26T11:36:41.901Z,1.00
2022-09-26T11:39:18.380Z,0.00
2022-09-26T11:41:53.485Z,0.00
2022-09-26T11:44:40.332Z,0.00
2022-09-26T11:47:36.960Z,0.50
2022-09-26T11:50:14.833Z,0.50
2022-09-26T11:52:49.464Z,0.50
2022-09-26T11:55:21.421Z,0.00
2022-09-26T11:57:56.057Z,0.75
2022-09-26T12:00:27.760Z,0.00
2022-09-26T12:03:27.765Z,0.00
2022-09-26T12:05:59.593Z,0.50
2022-09-26T12:08:42.807Z,0.25
2022-09-26T12:11:17.211Z,0.75
2022-09-26T12:13:52.307Z,0.00
2022-09-26T12:16:23.031Z,0.00
2022-09-26T12:18:59.504Z,0.00
2022-09-26T12:21:32.712Z,0.00
2022-09-26T12:24:03.679Z,0.00
2022-09-26T12:26:35.072Z,0.00
2022-09-26T12:29:11.800Z,0.00
2022-09-26T12:31:49.641Z,0.00
2022-09-26T12:34:27.568Z,0.00
2022-09-26T12:37:04.044Z,0.00
2022-09-26T12:39:47.466Z,0.00
2022-09-26T12:42:24.684Z,0.00
2022-09-26T12:45:26.692Z,0.00
2022-09-26T12:48:22.621Z,0.50
2022-09-26T12:50:56.806Z,0.50
2022-09-26T12:53:44.451Z,0.00
2022-09-26T12:56:15.552Z,0.50
2022-09-26T12:58:57.610Z,0.50
2022-09-26T13:01:58.111Z,0.00
2022-09-26T13:05:08.844Z,0.50
2022-09-26T13:07:43.391Z,0.50
2022-09-26T13:10:20.468Z,0.50
2022-09-26T13:12:57.982Z,0.00
2022-09-26T13:15:28.978Z,0.50
2022-09-26T13:18:01.809Z,0.00
2022-09-26T13:20:32.769Z,0.00
2022-09-26T13:23:03.408Z,0.00
2022-09-26T13:25:34.294Z,0.00
2022-09-26T13:28:05.080Z,0.00
2022-09-26T13:30:35.614Z,0.00
2022-09-26T13:33:08.534Z,0.00
2022-09-26T13:35:37.465Z,0.00
2022-09-26T13:38:19.334Z,0.00
2022-09-26T13:40:51.578Z,0.00
2022-09-26T13:43:26.223Z,0.00
2022-09-26T13:46:00.289Z,0.00
2022-09-26T13:48:45.308Z,0.00
2022-09-26T13:51:21.849Z,0.00
2022-09-26T13:54:06.755Z,0.75
2022-09-26T13:56:56.831Z,0.50
2022-09-26T13:59:55.439Z,0.50
2022-09-26T14:02:31.777Z,0.50
2022-09-26T14:05:44.064Z,0.50
2022-09-26T14:08:52.801Z,0.50
2022-09-26T14:11:30.964Z,0.50
2022-09-26T14:14:26.436Z,0.50
2022-09-26T14:16:56.716Z,0.50
2022-09-26T14:19:31.772Z,0.00
2022-09-26T14:22:02.433Z,0.00
2022-09-26T14:24:41.965Z,0.00
2022-09-26T14:27:52.709Z,1.00
2022-09-26T14:30:38.567Z,0.00
2022-09-26T14:33:09.181Z,0.50
2022-09-26T14:35:38.572Z,0.00
2022-09-26T14:38:10.195Z,0.00
2022-09-26T14:40:39.834Z,0.00
2022-09-26T14:43:13.720Z,0.00
2022-09-26T14:45:49.615Z,0.00
2022-09-26T14:48:32.201Z,0.00
2022-09-26T14:51:02.505Z,0.00
2022-09-26T14:53:35.302Z,0.00
2022-09-26T14:56:06.428Z,0.00
2022-09-26T14:58:47.290Z,0.00
2022-09-26T15:01:19.364Z,0.00
2022-09-26T15:04:01.503Z,0.00
2022-09-26T15:06:29.704Z,0.00
2022-09-26T15:08:59.265Z,0.00
2022-09-26T15:11:34.771Z,0.00
2022-09-26T15:14:06.065Z,0.00
2022-09-26T15:16:37.491Z,0.00
2022-09-26T15:19:07.315Z,0.00
2022-09-26T15:21:38.452Z,0.00
2022-09-26T15:24:22.745Z,0.00
2022-09-26T15:26:52.220Z,0.00
2022-09-26T15:29:22.114Z,0.00
2022-09-26T15:31:51.256Z,0.00
2022-09-26T15:34:21.061Z,0.00
2022-09-26T15:36:51.300Z,0.00
2022-09-26T15:39:44.950Z,0.25
2022-09-26T15:42:42.490Z,0.25
2022-09-26T15:45:27.528Z,1.00
2022-09-26T15:47:56.381Z,1.50
2022-09-26T15:50:27.358Z,0.00
2022-09-26T15:52:57.506Z,1.00
2022-09-26T15:55:26.867Z,1.75
2022-09-26T15:57:57.665Z,0.50
2022-09-26T16:00:25.632Z,1.25
2022-09-26T16:02:53.948Z,2.00
2022-09-26T16:05:22.044Z,2.00
2022-09-26T16:07:50.575Z,3.50
2022-09-26T16:10:22.973Z,2.00
2022-09-26T16:12:51.244Z,3.75
2022-09-26T16:15:24.520Z,3.00
2022-09-26T16:17:53.059Z,2.25
2022-09-26T16:20:27.654Z,3.00
2022-09-26T16:23:00.417Z,4.00
2022-09-26T16:25:36.331Z,4.75
2022-09-26T16:28:41.917Z,4.25
2022-09-26T16:31:17.781Z,5.25
2022-09-26T16:33:50.475Z,4.75
2022-09-26T16:36:23.215Z,4.75
2022-09-26T16:38:52.427Z,6.00
2022-09-26T16:41:48.830Z,4.00
2022-09-26T16:44:26.239Z,5.00
2022-09-26T16:46:58.891Z,5.25
2022-09-26T16:49:32.265Z,6.00
2022-09-26T16:52:12.276Z,6.00
2022-09-26T16:54:43.601Z,7.00
2022-09-26T16:57:11.844Z,7.00
2022-09-26T16:59:39.837Z,7.00
2022-09-26T17:02:09.680Z,8.00
2022-09-26T17:04:37.820Z,8.00
2022-09-26T17:07:09.857Z,8.00
2022-09-26T17:09:41.232Z,8.00
2022-09-26T17:12:14.782Z,9.00
2022-09-26T17:14:42.796Z,6.00
2022-09-26T17:17:16.119Z,7.00
2022-09-26T17:19:44.559Z,8.00
2022-09-26T17:22:14.509Z,8.00
2022-09-26T17:24:43.151Z,9.00
2022-09-26T17:27:14.510Z,7.25
2022-09-26T17:29:44.411Z,9.00
2022-09-26T17:32:15.175Z,8.00
2022-09-26T17:34:44.469Z,9.75
2022-09-26T17:37:13.136Z,10.00
2022-09-26T17:39:41.194Z,10.00
2022-09-26T17:42:09.253Z,11.00
2022-09-26T17:44:37.245Z,10.75
2022-09-26T17:47:07.200Z,11.75
2022-09-26T17:49:38.540Z,11.75
2022-09-26T17:52:12.968Z,11.00
2022-09-26T17:54:42.848Z,11.00
2022-09-26T17:57:11.431Z,12.00
2022-09-26T17:59:42.094Z,10.75
2022-09-26T18:02:17.557Z,10.75
2022-09-26T18:04:47.039Z,10.00
2022-09-26T18:07:16.247Z,11.25
2022-09-26T18:09:44.606Z,11.00
2022-09-26T18:12:15.162Z,11.75
2022-09-26T18:14:43.211Z,12.00
2022-09-26T18:17:12.407Z,11.25
2022-09-26T18:19:40.433Z,13.00
2022-09-26T18:22:12.203Z,14.00
2022-09-26T18:24:40.204Z,11.50
2022-09-26T18:27:10.591Z,14.25
2022-09-26T18:29:39.811Z,11.75
2022-09-26T18:32:17.990Z,12.00
2022-09-26T18:34:45.985Z,11.75
2022-09-26T18:37:16.351Z,12.50
2022-09-26T18:39:44.367Z,13.00
2022-09-26T18:42:13.307Z,12.25
2022-09-26T18:44:42.563Z,12.75
2022-09-26T18:47:14.725Z,13.25
2022-09-26T18:49:42.713Z,15.75
2022-09-26T18:52:15.094Z,15.00
2022-09-26T18:54:45.163Z,15.50
2022-09-26T18:57:45.744Z,15.25
2022-09-26T19:00:13.963Z,17.00
2022-09-26T19:02:42.554Z,16.25
2022-09-26T19:05:11.765Z,19.00
2022-09-26T19:07:40.433Z,17.25
2022-09-26T19:10:11.803Z,16.00
2022-09-26T19:12:39.887Z,16.50
2022-09-26T19:15:14.166Z,18.00
2022-09-26T19:17:42.160Z,16.00
2022-09-26T19:20:10.240Z,17.00
2022-09-26T19:22:38.218Z,15.50
2022-09-26T19:25:06.974Z,17.75
2022-09-26T19:27:40.063Z,16.75
2022-09-26T19:30:14.818Z,17.75
2022-09-26T19:32:43.724Z,19.00
2022-09-26T19:35:13.933Z,17.25
2022-09-26T19:37:41.902Z,18.00
2022-09-26T19:40:13.938Z,16.50
2022-09-26T19:42:43.419Z,16.25
2022-09-26T19:45:12.455Z,15.75
2022-09-26T19:47:41.376Z,18.00
2022-09-26T19:50:12.112Z,16.00
2022-09-26T19:52:40.063Z,19.00
2022-09-26T19:55:13.674Z,17.00
2022-09-26T19:57:43.045Z,19.00
2022-09-26T20:00:12.919Z,19.00
2022-09-26T20:02:40.966Z,19.00
2022-09-26T20:05:15.583Z,19.00
2022-09-26T20:07:44.570Z,19.50
2022-09-26T20:10:15.786Z,19.00
2022-09-26T20:12:45.254Z,18.75
2022-09-26T20:15:13.999Z,19.00
2022-09-26T20:17:43.094Z,19.00
2022-09-26T20:20:12.875Z,19.00
2022-09-26T20:22:42.467Z,19.00
2022-09-26T20:25:15.591Z,18.25
2022-09-26T20:27:44.966Z,18.00
2022-09-26T20:30:32.360Z,18.00
2022-09-26T20:33:00.419Z,19.00
2022-09-26T20:35:33.136Z,17.00
2022-09-26T20:38:04.548Z,18.25
2022-09-26T20:40:32.596Z,17.75
2022-09-26T20:43:03.769Z,18.50
2022-09-26T20:45:34.637Z,17.25
2022-09-26T20:48:02.978Z,17.00
2022-09-26T20:50:34.202Z,15.75
2022-09-26T20:53:02.526Z,17.25
2022-09-26T20:55:32.511Z,16.00
2022-09-26T20:58:01.897Z,19.00
2022-09-26T21:00:29.837Z,16.75
2022-09-26T21:02:58.085Z,19.25
2022-09-26T21:05:27.433Z,18.50
2022-09-26T21:07:55.984Z,19.00
2022-09-26T21:10:24.965Z,19.25
2022-09-26T21:12:52.978Z,22.00
2022-09-26T21:15:22.716Z,22.00
2022-09-26T21:17:51.099Z,24.00
2022-09-26T21:20:20.810Z,22.00
2022-09-26T21:22:48.764Z,23.00
2022-09-26T21:25:17.964Z,22.00
2022-09-26T21:27:46.104Z,22.75
2022-09-26T21:30:15.574Z,24.25
2022-09-26T21:32:46.849Z,23.00
2022-09-26T21:35:15.122Z,23.75
2022-09-26T21:37:43.316Z,22.25
2022-09-26T21:40:11.495Z,21.75
2022-09-26T21:42:39.423Z,21.50
2022-09-26T21:45:10.342Z,22.75
2022-09-26T21:47:38.318Z,22.75
2022-09-26T21:50:08.667Z,23.00
2022-09-26T21:52:37.709Z,22.00
2022-09-26T21:55:06.589Z,22.00
2022-09-26T21:57:35.593Z,21.25
2022-09-26T22:00:04.308Z,21.25
2022-09-26T22:02:32.338Z,22.00
2022-09-26T22:05:00.590Z,22.25
2022-09-26T22:07:30.135Z,21.50
2022-09-26T22:09:58.228Z,22.25
2022-09-26T22:12:26.298Z,22.00
2022-09-26T22:14:54.577Z,21.00
2022-09-26T22:17:22.579Z,21.00
2022-09-26T22:19:53.183Z,21.00
2022-09-26T22:22:21.684Z,20.50
2022-09-26T22:24:51.425Z,20.00
2022-09-26T22:27:19.436Z,20.00
2022-09-26T22:29:48.426Z,18.50
2022-09-26T22:32:16.454Z,19.25
2022-09-26T22:34:44.450Z,19.00
2022-09-26T22:37:12.437Z,18.25
2022-09-26T22:39:40.446Z,18.25
2022-09-26T22:42:09.858Z,18.75
2022-09-26T22:44:37.866Z,18.00
2022-09-26T22:47:06.563Z,16.75
2022-09-26T22:49:34.571Z,16.50
2022-09-26T22:52:02.993Z,14.75
2022-09-26T22:54:31.007Z,15.25
2022-09-26T22:56:59.259Z,14.25
2022-09-26T22:59:28.871Z,15.00
2022-09-26T23:01:57.443Z,13.75
2022-09-26T23:04:45.438Z,13.00
2022-09-26T23:07:13.780Z,14.00
2022-09-26T23:09:41.762Z,13.00
2022-09-26T23:12:10.120Z,12.00
2022-09-26T23:14:39.529Z,12.75
2022-09-26T23:17:08.005Z,13.00
2022-09-26T23:19:36.087Z,11.25
2022-09-26T23:22:04.101Z,11.00
2022-09-26T23:24:32.102Z,12.00
2022-09-26T23:27:00.132Z,11.00
2022-09-26T23:29:28.174Z,11.00
2022-09-26T23:31:57.861Z,10.50
2022-09-26T23:34:25.873Z,9.25
2022-09-26T23:36:54.173Z,9.25
2022-09-26T23:39:22.322Z,11.00
2022-09-26T23:41:50.293Z,9.00
2022-09-26T23:44:18.293Z,9.25
2022-09-26T23:46:46.572Z,9.00
2022-09-26T23:49:16.032Z,8.00
2022-09-26T23:51:44.112Z,8.50
2022-09-26T23:54:12.348Z,9.00
2022-09-26T23:56:41.675Z,8.00
2022-09-26T23:59:09.837Z,8.25
